createdAt,value
2019-05-11T00:00:07.357Z,1.7852
2019-05-11T00:00:18.373Z,2.2291
2019-05-11T00:00:27.378Z,2.6366
2019-05-11T00:00:38.378Z,2.5443
2019-05-11T00:00:47.368Z,2.6028
2019-05-11T00:00:58.404Z,2.6370
2019-05-11T00:01:07.388Z,3.2562
2019-05-11T00:01:18.368Z,3.3447
2019-05-11T00:01:27.369Z,3.1701
2019-05-11T00:01:38.418Z,2.8036
2019-05-11T00:01:47.375Z,2.4437
2019-05-11T00:01:58.358Z,2.6555
2019-05-11T00:02:07.374Z,2.6861
2019-05-11T00:02:18.378Z,2.0064
2019-05-11T00:02:27.401Z,1.8766
2019-05-11T00:02:38.369Z,1.5235
2019-05-11T00:02:47.383Z,1.8991
2019-05-11T00:02:58.409Z,2.2045
2019-05-11T00:03:08.229Z,1.9743
2019-05-11T00:03:18.463Z,2.2033
2019-05-11T00:03:27.369Z,1.8922
2019-05-11T00:03:38.371Z,2.1105
2019-05-11T00:03:50.355Z,2.5645
2019-05-11T00:03:58.381Z,3.0802
2019-05-11T00:04:09.381Z,3.0585
2019-05-11T00:04:17.396Z,2.8354
2019-05-11T00:04:28.382Z,3.3775
2019-05-11T00:04:37.354Z,3.7169
2019-05-11T00:04:48.390Z,3.5046
2019-05-11T00:04:57.383Z,3.2046
2019-05-11T00:05:08.361Z,3.1349
2019-05-11T00:05:17.386Z,2.8528
2019-05-11T00:05:28.390Z,2.3112
2019-05-11T00:05:37.355Z,2.4360
2019-05-11T00:05:48.392Z,2.3444
2019-05-11T00:05:57.371Z,2.1121
2019-05-11T00:06:08.385Z,3.1852
2019-05-11T00:06:17.390Z,2.9305
2019-05-11T00:06:28.370Z,2.2539
2019-05-11T00:06:37.443Z,2.8859
2019-05-11T00:06:48.370Z,3.2728
2019-05-11T00:06:59.370Z,3.2197
2019-05-11T00:07:08.359Z,2.9842
2019-05-11T00:07:17.420Z,2.2706
2019-05-11T00:07:29.450Z,1.7395
2019-05-11T00:07:37.381Z,2.5778
2019-05-11T00:07:49.287Z,2.7353
2019-05-11T00:07:57.900Z,2.9570
2019-05-11T00:08:08.351Z,2.9061
2019-05-11T00:08:20.371Z,3.4479
2019-05-11T00:08:27.361Z,2.8423
2019-05-11T00:08:38.369Z,2.8405
2019-05-11T00:08:47.390Z,3.7187
2019-05-11T00:08:58.392Z,3.4627
2019-05-11T00:09:07.385Z,2.8876
2019-05-11T00:09:18.383Z,2.5752
2019-05-11T00:09:27.397Z,3.0896
2019-05-11T00:09:38.392Z,3.2798
2019-05-11T00:09:57.675Z,2.5315
2019-05-11T00:09:58.559Z,2.7239
2019-05-11T00:10:07.376Z,2.7352
2019-05-11T00:10:18.391Z,2.7531
2019-05-11T00:10:27.360Z,2.9778
2019-05-11T00:10:38.386Z,2.6987
2019-05-11T00:10:48.359Z,2.3824
2019-05-11T00:10:58.385Z,2.0164
2019-05-11T00:11:07.355Z,1.9033
2019-05-11T00:11:18.380Z,2.3242
2019-05-11T00:11:27.397Z,2.0629
2019-05-11T00:11:37.281Z,1.9302
2019-05-11T00:11:47.377Z,2.1085
2019-05-11T00:11:58.362Z,2.4923
2019-05-11T00:12:10.271Z,2.0413
2019-05-11T00:12:18.383Z,2.4277
2019-05-11T00:12:29.380Z,2.5450
2019-05-11T00:12:37.363Z,2.8778
2019-05-11T00:12:50.281Z,3.3780
2019-05-11T00:12:57.378Z,3.0288
2019-05-11T00:13:08.906Z,3.5525
2019-05-11T00:13:18.930Z,3.6147
2019-05-11T00:13:28.366Z,3.0937
2019-05-11T00:13:37.372Z,3.0501
2019-05-11T00:13:48.363Z,2.5019
2019-05-11T00:13:57.346Z,2.3666
2019-05-11T00:14:08.366Z,2.6752
2019-05-11T00:14:17.382Z,2.5179
2019-05-11T00:14:28.366Z,3.1064
2019-05-11T00:14:37.364Z,2.5807
2019-05-11T00:14:48.360Z,2.4940
2019-05-11T00:15:01.894Z,3.5648
2019-05-11T00:15:08.366Z,3.9289
2019-05-11T00:15:17.374Z,3.1979
2019-05-11T00:15:28.362Z,2.8439
2019-05-11T00:15:37.373Z,2.3849
2019-05-11T00:15:47.495Z,2.4043
2019-05-11T00:15:58.670Z,2.3334
2019-05-11T00:16:09.381Z,2.4948
2019-05-11T00:16:19.174Z,2.7035
2019-05-11T00:16:29.183Z,2.6699
2019-05-11T00:16:40.510Z,3.1565
2019-05-11T00:16:48.366Z,3.0190
2019-05-11T00:17:00.392Z,2.5575
2019-05-11T00:17:07.389Z,2.8480
2019-05-11T00:17:19.363Z,3.1784
2019-05-11T00:17:27.371Z,3.5900
2019-05-11T00:17:38.393Z,4.0593
2019-05-11T00:17:47.381Z,4.2909
2019-05-11T00:17:58.370Z,3.3772
2019-05-11T00:18:07.412Z,3.4200
2019-05-11T00:18:18.374Z,3.1884
2019-05-11T00:18:27.371Z,2.9984
2019-05-11T00:18:42.927Z,2.2546
2019-05-11T00:18:52.904Z,2.3389
2019-05-11T00:18:58.372Z,2.1065
2019-05-11T00:19:09.417Z,2.2367
2019-05-11T00:19:18.375Z,1.9737
2019-05-11T00:19:27.375Z,2.1505
2019-05-11T00:19:37.371Z,2.8484
2019-05-11T00:19:47.368Z,4.1943
2019-05-11T00:19:58.374Z,3.8414
2019-05-11T00:20:08.458Z,3.6373
2019-05-11T00:20:23.024Z,2.3311
2019-05-11T00:20:27.362Z,2.8226
2019-05-11T00:20:38.370Z,2.7242
2019-05-11T00:20:50.480Z,2.5726
2019-05-11T00:20:59.188Z,2.7940
2019-05-11T00:21:10.437Z,2.6371
2019-05-11T00:21:17.404Z,2.4972
2019-05-11T00:21:30.287Z,2.1747
2019-05-11T00:21:39.916Z,2.0257
2019-05-11T00:21:48.378Z,2.3183
2019-05-11T00:21:57.391Z,3.0850
2019-05-11T00:22:08.437Z,3.1010
2019-05-11T00:22:17.362Z,3.3219
2019-05-11T00:22:28.363Z,3.3134
2019-05-11T00:22:37.384Z,3.0172
2019-05-11T00:22:48.362Z,2.8025
2019-05-11T00:22:57.358Z,2.6655
2019-05-11T00:23:08.380Z,2.0446
2019-05-11T00:23:17.382Z,1.9893
2019-05-11T00:23:28.390Z,2.3347
2019-05-11T00:23:37.388Z,3.1007
2019-05-11T00:23:48.357Z,3.3064
2019-05-11T00:23:57.354Z,3.4771
2019-05-11T00:24:08.384Z,3.4209
2019-05-11T00:24:18.435Z,2.6990
2019-05-11T00:24:29.476Z,2.4541
2019-05-11T00:24:38.313Z,2.2947
2019-05-11T00:24:48.377Z,2.9876
2019-05-11T00:24:59.395Z,2.9694
2019-05-11T00:25:07.381Z,2.9565
2019-05-11T00:25:19.373Z,3.2046
2019-05-11T00:25:27.368Z,2.7585
2019-05-11T00:25:38.383Z,2.3292
2019-05-11T00:25:47.381Z,2.1721
2019-05-11T00:25:58.363Z,2.5866
2019-05-11T00:26:07.361Z,3.0076
2019-05-11T00:26:18.385Z,3.2498
2019-05-11T00:26:27.383Z,3.1415
2019-05-11T00:26:38.019Z,3.1795
2019-05-11T00:26:47.379Z,3.0399
2019-05-11T00:26:58.368Z,3.0041
2019-05-11T00:27:07.445Z,3.2299
2019-05-11T00:27:18.386Z,3.2830
2019-05-11T00:27:27.367Z,2.9138
2019-05-11T00:27:37.371Z,2.7462
2019-05-11T00:27:47.375Z,2.6858
2019-05-11T00:27:58.377Z,1.9708
2019-05-11T00:28:08.436Z,1.7269
2019-05-11T00:28:17.582Z,1.8695
2019-05-11T00:28:28.233Z,2.0170
2019-05-11T00:28:38.375Z,2.0668
2019-05-11T00:28:49.375Z,3.2627
2019-05-11T00:28:58.374Z,3.0939
2019-05-11T00:29:07.976Z,3.4133
2019-05-11T00:29:17.380Z,4.1991
2019-05-11T00:29:29.389Z,3.7533
2019-05-11T00:29:37.868Z,2.9822
2019-05-11T00:29:48.371Z,2.3497
2019-05-11T00:29:57.392Z,2.1138
2019-05-11T00:30:08.358Z,2.1441
2019-05-11T00:30:17.368Z,2.1239
2019-05-11T00:30:28.381Z,2.2997
2019-05-11T00:30:37.375Z,2.2096
2019-05-11T00:30:48.377Z,2.4137
2019-05-11T00:30:57.377Z,2.0727
2019-05-11T00:31:08.372Z,1.2692
2019-05-11T00:31:17.371Z,5.3743
2019-05-11T00:31:27.923Z,5.0275
2019-05-11T00:31:37.380Z,4.5886
2019-05-11T00:31:48.399Z,3.4310
2019-05-11T00:31:58.478Z,2.6772
2019-05-11T00:32:07.580Z,1.9528
2019-05-11T00:32:17.355Z,1.9805
2019-05-11T00:32:28.377Z,2.1966
2019-05-11T00:32:39.398Z,2.4878
2019-05-11T00:32:48.398Z,2.0928
2019-05-11T00:33:02.858Z,3.1554
2019-05-11T00:33:07.379Z,3.3218
2019-05-11T00:33:19.344Z,2.7222
2019-05-11T00:33:27.415Z,2.3467
2019-05-11T00:33:38.392Z,2.1307
2019-05-11T00:33:47.375Z,2.1991
2019-05-11T00:33:58.393Z,2.5837
2019-05-11T00:34:11.898Z,2.4146
2019-05-11T00:34:18.368Z,2.1015
2019-05-11T00:34:27.370Z,2.1087
2019-05-11T00:34:38.390Z,2.3317
2019-05-11T00:34:47.364Z,1.9712
2019-05-11T00:34:58.401Z,1.8490
2019-05-11T00:35:08.365Z,2.0233
2019-05-11T00:35:18.376Z,2.7176
2019-05-11T00:35:27.356Z,3.3328
2019-05-11T00:35:38.381Z,3.2478
2019-05-11T00:35:47.383Z,2.8180
2019-05-11T00:35:58.379Z,2.3148
2019-05-11T00:36:08.408Z,2.3821
2019-05-11T00:36:18.373Z,1.9894
2019-05-11T00:36:28.346Z,2.2754
2019-05-11T00:36:38.363Z,2.1374
2019-05-11T00:36:50.209Z,2.4946
2019-05-11T00:36:59.381Z,2.0567
2019-05-11T00:37:09.361Z,1.9821
2019-05-11T00:37:17.371Z,2.1422
2019-05-11T00:37:28.362Z,2.6286
2019-05-11T00:37:37.360Z,2.5486
2019-05-11T00:37:48.383Z,1.9981
2019-05-11T00:37:57.379Z,1.8012
2019-05-11T00:38:08.374Z,2.0470
2019-05-11T00:38:17.387Z,1.7302
2019-05-11T00:38:28.373Z,2.4252
2019-05-11T00:38:37.641Z,2.7122
2019-05-11T00:38:48.385Z,2.0383
2019-05-11T00:38:57.373Z,2.0405
2019-05-11T00:39:08.377Z,1.8986
2019-05-11T00:39:17.374Z,1.5776
2019-05-11T00:39:28.384Z,1.2608
2019-05-11T00:39:37.354Z,1.3563
2019-05-11T00:39:47.868Z,1.9807
2019-05-11T00:40:13.325Z,2.3252
2019-05-11T00:40:14.463Z,2.5428
2019-05-11T00:40:17.365Z,2.5389
2019-05-11T00:40:28.354Z,2.5702
2019-05-11T00:40:37.378Z,2.0125
2019-05-11T00:40:48.364Z,2.5514
2019-05-11T00:40:59.360Z,2.9878
2019-05-11T00:41:08.382Z,2.6958
2019-05-11T00:41:20.233Z,1.9771
2019-05-11T00:41:27.389Z,1.6382
2019-05-11T00:41:38.390Z,1.6812
2019-05-11T00:41:47.384Z,2.4483
2019-05-11T00:41:58.358Z,2.4814
2019-05-11T00:42:07.359Z,2.4146
2019-05-11T00:42:18.359Z,1.9964
2019-05-11T00:42:27.375Z,1.9610
2019-05-11T00:42:38.386Z,2.5669
2019-05-11T00:42:47.401Z,2.3409
2019-05-11T00:42:58.375Z,2.0022
2019-05-11T00:43:07.381Z,2.0594
2019-05-11T00:43:18.376Z,2.7825
2019-05-11T00:43:31.945Z,2.3680
2019-05-11T00:43:38.366Z,2.5281
2019-05-11T00:43:47.371Z,3.1932
2019-05-11T00:43:58.375Z,3.0836
2019-05-11T00:44:09.358Z,2.9240
2019-05-11T00:44:18.380Z,2.7866
2019-05-11T00:44:28.322Z,3.0433
2019-05-11T00:44:38.356Z,3.3957
2019-05-11T00:44:47.495Z,2.9276
2019-05-11T00:44:59.301Z,2.8979
2019-05-11T00:45:09.372Z,3.4214
2019-05-11T00:45:18.409Z,3.0862
2019-05-11T00:45:30.290Z,2.8882
2019-05-11T00:45:37.387Z,2.5813
2019-05-11T00:45:49.380Z,2.1170
2019-05-11T00:45:57.455Z,2.6553
2019-05-11T00:46:08.370Z,3.3627
2019-05-11T00:46:17.393Z,2.9738
2019-05-11T00:46:28.383Z,2.8844
2019-05-11T00:46:37.422Z,2.1002
2019-05-11T00:46:48.384Z,2.3558
2019-05-11T00:46:57.406Z,2.1514
2019-05-11T00:47:08.371Z,1.9777
2019-05-11T00:47:17.383Z,1.7414
2019-05-11T00:47:32.901Z,2.6266
2019-05-11T00:47:37.373Z,3.3629
2019-05-11T00:47:48.371Z,3.5300
2019-05-11T00:47:57.368Z,3.2259
2019-05-11T00:48:08.429Z,2.7247
2019-05-11T00:48:18.804Z,3.6378
2019-05-11T00:48:27.339Z,3.0847
2019-05-11T00:48:37.430Z,2.6209
2019-05-11T00:48:48.374Z,2.9301
2019-05-11T00:48:58.308Z,2.9619
2019-05-11T00:49:09.599Z,2.2292
2019-05-11T00:49:20.391Z,1.3111
2019-05-11T00:49:28.358Z,1.7079
2019-05-11T00:49:39.412Z,2.3196
2019-05-11T00:49:47.353Z,2.4289
2019-05-11T00:49:59.393Z,2.2559
2019-05-11T00:50:07.375Z,2.1192
2019-05-11T00:50:18.386Z,2.3521
2019-05-11T00:50:39.509Z,2.3862
2019-05-11T00:50:40.194Z,2.1659
2019-05-11T00:50:47.361Z,2.0883
2019-05-11T00:50:58.372Z,1.9166
2019-05-11T00:51:07.376Z,2.1166
2019-05-11T00:51:18.360Z,2.8776
2019-05-11T00:51:27.363Z,3.3003
2019-05-11T00:51:38.366Z,2.3265
2019-05-11T00:51:47.410Z,1.7042
2019-05-11T00:51:58.356Z,1.8845
2019-05-11T00:52:07.366Z,1.8997
2019-05-11T00:52:18.369Z,2.3150
2019-05-11T00:52:27.399Z,2.4070
2019-05-11T00:52:37.796Z,2.9530
2019-05-11T00:52:47.384Z,2.4780
2019-05-11T00:52:57.297Z,2.1871
2019-05-11T00:53:07.369Z,1.7660
2019-05-11T00:53:18.365Z,1.5966
2019-05-11T00:53:27.383Z,1.3262
2019-05-11T00:53:38.413Z,1.5120
2019-05-11T00:53:48.475Z,1.6310
2019-05-11T00:53:59.290Z,1.9927
2019-05-11T00:54:09.377Z,1.6450
2019-05-11T00:54:18.387Z,2.2071
2019-05-11T00:54:30.293Z,2.2926
2019-05-11T00:54:37.376Z,2.7122
2019-05-11T00:54:49.348Z,2.9365
2019-05-11T00:54:57.354Z,2.8229
2019-05-11T00:55:08.388Z,2.5709
2019-05-11T00:55:17.367Z,2.8515
2019-05-11T00:55:28.371Z,2.9859
2019-05-11T00:55:37.388Z,2.7944
2019-05-11T00:55:48.380Z,2.6215
2019-05-11T00:55:57.381Z,3.1165
2019-05-11T00:56:08.364Z,3.2531
2019-05-11T00:56:17.390Z,2.7701
2019-05-11T00:56:28.370Z,2.2890
2019-05-11T00:56:37.386Z,2.6686
2019-05-11T00:56:48.385Z,3.9065
2019-05-11T00:56:57.356Z,3.6403
2019-05-11T00:57:08.378Z,2.7972
2019-05-11T00:57:17.384Z,2.4227
2019-05-11T00:57:28.395Z,2.3349
2019-05-11T00:57:37.015Z,2.5984
2019-05-11T00:57:48.363Z,2.3966
2019-05-11T00:57:57.377Z,1.8988
2019-05-11T00:58:08.375Z,1.6328
2019-05-11T00:58:18.317Z,1.2562
2019-05-11T00:58:28.375Z,1.3392
2019-05-11T00:58:39.364Z,1.8979
2019-05-11T00:58:50.954Z,2.1849
2019-05-11T00:59:00.416Z,2.7874
2019-05-11T00:59:20.884Z,2.7328
2019-05-11T00:59:21.748Z,2.1570
2019-05-11T00:59:27.375Z,2.0983
2019-05-11T00:59:38.355Z,2.0708
2019-05-11T00:59:47.359Z,1.9611
2019-05-11T00:59:58.373Z,2.7003
2019-05-11T01:00:07.385Z,3.3738
2019-05-11T01:00:18.364Z,2.9151
2019-05-11T01:00:27.374Z,2.7607
2019-05-11T01:00:38.380Z,2.3280
2019-05-11T01:00:47.376Z,2.4535
2019-05-11T01:00:58.389Z,1.9529
2019-05-11T01:01:07.358Z,1.4386
2019-05-11T01:01:18.368Z,1.5863
2019-05-11T01:01:27.367Z,1.7737
2019-05-11T01:01:37.784Z,2.0034
2019-05-11T01:01:47.396Z,2.6630
2019-05-11T01:01:57.332Z,2.6643
2019-05-11T01:02:07.374Z,3.0979
2019-05-11T01:02:17.578Z,3.2006
2019-05-11T01:02:27.364Z,3.3037
2019-05-11T01:02:38.374Z,3.7045
2019-05-11T01:02:49.358Z,2.6338
2019-05-11T01:02:58.364Z,2.1821
2019-05-11T01:03:09.371Z,2.2526
2019-05-11T01:03:17.354Z,2.2353
2019-05-11T01:03:28.384Z,2.4944
2019-05-11T01:03:37.361Z,2.2724
2019-05-11T01:03:48.380Z,2.5071
2019-05-11T01:03:57.376Z,3.2361
2019-05-11T01:04:08.386Z,3.4635
2019-05-11T01:04:17.415Z,2.6971
2019-05-11T01:04:28.393Z,2.1695
2019-05-11T01:04:37.402Z,2.1478
2019-05-11T01:04:48.387Z,1.9440
2019-05-11T01:04:57.385Z,2.5002
2019-05-11T01:05:08.433Z,2.6710
2019-05-11T01:05:17.368Z,2.7744
2019-05-11T01:05:28.356Z,2.7496
2019-05-11T01:05:37.393Z,3.8148
2019-05-11T01:05:48.380Z,4.0667
2019-05-11T01:05:57.368Z,3.9709
2019-05-11T01:06:08.375Z,3.2575
2019-05-11T01:06:19.383Z,2.8928
2019-05-11T01:06:28.382Z,3.3214
2019-05-11T01:06:40.245Z,3.2699
2019-05-11T01:06:47.392Z,2.9424
2019-05-11T01:06:58.401Z,2.6246
2019-05-11T01:07:07.381Z,1.9968
2019-05-11T01:07:18.394Z,2.2891
2019-05-11T01:07:27.386Z,2.6605
2019-05-11T01:07:38.379Z,1.7856
2019-05-11T01:07:47.364Z,1.7721
2019-05-11T01:07:58.372Z,2.0913
2019-05-11T01:08:07.389Z,2.4390
2019-05-11T01:08:18.028Z,2.6606
2019-05-11T01:08:27.372Z,2.0613
2019-05-11T01:08:38.370Z,1.5553
2019-05-11T01:08:47.369Z,1.7740
2019-05-11T01:08:58.508Z,1.4316
2019-05-11T01:09:07.393Z,1.5055
2019-05-11T01:09:18.382Z,1.7546
2019-05-11T01:09:27.381Z,1.9854
2019-05-11T01:09:37.389Z,2.2755
2019-05-11T01:09:49.371Z,1.9034
2019-05-11T01:09:57.256Z,2.0309
2019-05-11T01:10:21.745Z,2.7839
2019-05-11T01:10:25.674Z,2.6682
2019-05-11T01:10:41.133Z,2.4376
2019-05-11T01:10:42.693Z,2.1584
2019-05-11T01:10:47.367Z,1.8255
2019-05-11T01:10:58.363Z,1.5343
2019-05-11T01:11:09.360Z,1.8081
2019-05-11T01:11:18.373Z,1.6794
2019-05-11T01:11:29.356Z,1.9656
2019-05-11T01:11:39.258Z,2.6013
2019-05-11T01:11:49.376Z,2.8382
2019-05-11T01:11:57.386Z,3.0996
2019-05-11T01:12:10.916Z,2.6292
2019-05-11T01:12:17.368Z,2.6879
2019-05-11T01:12:28.359Z,2.8578
2019-05-11T01:12:37.371Z,3.2598
2019-05-11T01:12:48.390Z,2.1245
2019-05-11T01:13:01.867Z,1.9111
2019-05-11T01:13:08.383Z,2.4154
2019-05-11T01:13:17.391Z,2.7822
2019-05-11T01:13:28.373Z,3.5304
2019-05-11T01:13:37.380Z,3.0772
2019-05-11T01:13:48.361Z,2.2227
2019-05-11T01:13:57.377Z,2.0634
2019-05-11T01:14:08.361Z,2.2139
2019-05-11T01:14:17.940Z,2.5076
2019-05-11T01:14:28.376Z,2.7572
2019-05-11T01:14:37.371Z,2.9736
2019-05-11T01:14:48.421Z,3.2852
2019-05-11T01:14:58.934Z,2.4124
2019-05-11T01:15:08.395Z,1.8289
2019-05-11T01:15:18.268Z,1.8301
2019-05-11T01:15:27.590Z,1.7129
2019-05-11T01:15:37.440Z,1.9672
2019-05-11T01:15:48.369Z,2.0344
2019-05-11T01:16:00.397Z,2.3305
2019-05-11T01:16:08.408Z,1.7297
2019-05-11T01:16:19.368Z,1.5584
2019-05-11T01:16:27.379Z,2.2370
2019-05-11T01:16:39.367Z,1.9659
2019-05-11T01:16:47.392Z,2.5471
2019-05-11T01:16:58.360Z,2.6513
2019-05-11T01:17:07.366Z,2.6171
2019-05-11T01:17:18.380Z,2.1169
2019-05-11T01:17:27.384Z,2.1903
2019-05-11T01:17:38.385Z,1.6394
2019-05-11T01:17:47.395Z,1.2998
2019-05-11T01:17:58.378Z,1.0272
2019-05-11T01:18:07.368Z,0.9749
2019-05-11T01:18:18.379Z,1.7449
2019-05-11T01:18:27.413Z,1.6848
2019-05-11T01:18:38.378Z,2.1430
2019-05-11T01:18:47.378Z,2.2786
2019-05-11T01:18:58.368Z,2.7477
2019-05-11T01:19:07.380Z,2.1202
2019-05-11T01:19:18.362Z,1.2966
2019-05-11T01:19:29.387Z,1.8360
2019-05-11T01:19:38.356Z,2.3097
2019-05-11T01:19:48.391Z,2.3050
2019-05-11T01:19:57.578Z,1.5555
2019-05-11T01:20:07.382Z,1.7650
2019-05-11T01:20:19.440Z,1.9474
2019-05-11T01:20:29.360Z,1.6976
2019-05-11T01:20:38.355Z,1.8158
2019-05-11T01:20:50.417Z,2.0689
2019-05-11T01:20:59.912Z,2.0187
2019-05-11T01:21:09.375Z,1.7734
2019-05-11T01:21:17.381Z,2.1897
2019-05-11T01:21:28.360Z,1.7098
2019-05-11T01:21:37.354Z,1.7023
2019-05-11T01:21:48.375Z,1.5040
2019-05-11T01:21:57.387Z,1.9475
2019-05-11T01:22:08.379Z,2.1174
2019-05-11T01:22:17.376Z,1.9911
2019-05-11T01:22:28.375Z,1.4029
2019-05-11T01:22:37.379Z,2.0535
2019-05-11T01:22:48.448Z,2.8170
2019-05-11T01:22:57.371Z,3.0222
2019-05-11T01:23:08.362Z,2.7342
2019-05-11T01:23:17.378Z,2.2615
2019-05-11T01:23:27.809Z,2.0782
2019-05-11T01:23:37.378Z,2.2594
2019-05-11T01:23:48.387Z,1.6614
2019-05-11T01:23:58.814Z,2.0924
2019-05-11T01:24:08.395Z,2.3850
2019-05-11T01:24:18.308Z,2.6590
2019-05-11T01:24:27.596Z,3.6891
2019-05-11T01:24:37.380Z,3.3075
2019-05-11T01:24:49.322Z,2.4595
2019-05-11T01:24:57.369Z,2.5187
2019-05-11T01:25:08.406Z,2.9274
2019-05-11T01:25:20.336Z,2.8895
2019-05-11T01:25:28.375Z,3.0484
2019-05-11T01:25:39.366Z,2.4021
2019-05-11T01:25:47.378Z,2.6582
2019-05-11T01:25:59.364Z,2.6491
2019-05-11T01:26:07.378Z,2.6487
2019-05-11T01:26:18.390Z,2.3913
2019-05-11T01:26:31.937Z,1.7928
2019-05-11T01:26:38.362Z,1.8040
2019-05-11T01:26:47.378Z,1.5651
2019-05-11T01:26:58.374Z,1.8175
2019-05-11T01:27:07.368Z,2.5490
2019-05-11T01:27:18.361Z,2.8938
2019-05-11T01:27:27.390Z,3.7647
2019-05-11T01:27:38.382Z,3.6732
2019-05-11T01:27:47.368Z,3.2621
2019-05-11T01:27:58.383Z,2.5994
2019-05-11T01:28:07.371Z,2.1638
2019-05-11T01:28:18.387Z,1.9360
2019-05-11T01:28:27.378Z,2.3127
2019-05-11T01:28:37.803Z,1.9287
2019-05-11T01:28:47.365Z,2.2010
2019-05-11T01:28:58.393Z,2.5919
2019-05-11T01:29:07.379Z,2.4447
2019-05-11T01:29:18.355Z,2.4516
2019-05-11T01:29:27.359Z,2.4086
2019-05-11T01:29:38.404Z,2.4352
2019-05-11T01:29:47.371Z,2.5917
2019-05-11T01:29:59.403Z,3.0168
2019-05-11T01:30:09.384Z,2.6146
2019-05-11T01:30:17.375Z,2.2969
2019-05-11T01:30:29.385Z,2.5692
2019-05-11T01:30:38.867Z,2.5775
2019-05-11T01:30:48.363Z,2.4095
2019-05-11T01:30:57.377Z,2.2594
2019-05-11T01:31:11.158Z,3.4642
2019-05-11T01:31:17.377Z,3.8865
2019-05-11T01:31:32.891Z,2.9276
2019-05-11T01:31:37.394Z,2.5641
2019-05-11T01:31:48.371Z,2.0867
2019-05-11T01:31:57.377Z,1.7469
2019-05-11T01:32:07.967Z,1.8030
2019-05-11T01:32:17.369Z,2.0828
2019-05-11T01:32:28.378Z,1.5835
2019-05-11T01:32:37.393Z,1.6305
2019-05-11T01:32:48.402Z,1.6506
2019-05-11T01:32:57.367Z,2.4708
2019-05-11T01:33:07.272Z,2.5807
2019-05-11T01:33:17.372Z,2.7884
2019-05-11T01:33:28.381Z,2.3851
2019-05-11T01:33:39.319Z,2.7648
2019-05-11T01:33:48.422Z,3.4912
2019-05-11T01:33:57.383Z,2.9881
2019-05-11T01:34:09.342Z,2.1546
2019-05-11T01:34:22.926Z,2.1852
2019-05-11T01:34:28.397Z,2.1916
2019-05-11T01:34:40.227Z,2.2600
2019-05-11T01:34:47.399Z,1.9613
2019-05-11T01:34:59.389Z,2.5219
2019-05-11T01:35:07.359Z,2.4104
2019-05-11T01:35:18.406Z,2.4880
2019-05-11T01:35:30.283Z,3.2260
2019-05-11T01:35:38.418Z,3.2603
2019-05-11T01:35:50.886Z,2.9361
2019-05-11T01:35:58.404Z,2.9209
2019-05-11T01:36:07.367Z,3.1542
2019-05-11T01:36:18.386Z,2.9286
2019-05-11T01:36:27.362Z,2.1303
2019-05-11T01:36:38.382Z,2.0257
2019-05-11T01:36:47.363Z,1.8850
2019-05-11T01:36:58.390Z,1.8911
2019-05-11T01:37:09.377Z,2.8646
2019-05-11T01:37:18.356Z,2.9999
2019-05-11T01:37:27.363Z,3.3109
2019-05-11T01:37:37.272Z,3.1365
2019-05-11T01:37:47.391Z,2.5865
2019-05-11T01:37:58.368Z,2.7721
2019-05-11T01:38:08.938Z,3.1938
2019-05-11T01:38:17.604Z,2.9052
2019-05-11T01:38:27.359Z,3.6928
2019-05-11T01:38:39.397Z,3.3672
2019-05-11T01:38:49.366Z,3.3911
2019-05-11T01:38:58.370Z,3.3107
2019-05-11T01:39:10.390Z,3.2516
2019-05-11T01:39:19.961Z,2.5968
2019-05-11T01:39:29.381Z,3.4530
2019-05-11T01:39:38.887Z,3.2216
2019-05-11T01:39:48.385Z,2.7352
2019-05-11T01:39:57.385Z,3.0854
2019-05-11T01:40:11.006Z,2.8521
2019-05-11T01:40:17.409Z,2.6330
2019-05-11T01:40:28.378Z,1.9436
2019-05-11T01:40:37.370Z,2.9442
2019-05-11T01:40:58.155Z,3.7903
2019-05-11T01:40:59.023Z,3.1867
2019-05-11T01:41:08.370Z,2.5578
2019-05-11T01:41:17.389Z,2.7908
2019-05-11T01:41:28.376Z,2.8972
2019-05-11T01:41:37.361Z,2.9371
2019-05-11T01:41:48.387Z,2.7182
2019-05-11T01:41:57.388Z,2.7273
2019-05-11T01:42:08.385Z,2.6453
2019-05-11T01:42:17.378Z,2.5317
2019-05-11T01:42:28.368Z,3.1548
2019-05-11T01:42:37.395Z,2.6160
2019-05-11T01:42:52.933Z,2.1397
2019-05-11T01:42:57.370Z,1.9765
2019-05-11T01:43:07.344Z,2.0710
2019-05-11T01:43:18.377Z,2.5502
2019-05-11T01:43:28.386Z,2.5463
2019-05-11T01:43:40.357Z,2.2935
2019-05-11T01:43:48.899Z,2.3395
2019-05-11T01:44:00.906Z,2.3197
2019-05-11T01:44:07.383Z,2.3110
2019-05-11T01:44:18.376Z,2.3283
2019-05-11T01:44:27.372Z,2.8607
2019-05-11T01:44:38.372Z,3.3634
2019-05-11T01:44:47.359Z,3.5724
2019-05-11T01:44:58.382Z,3.4353
2019-05-11T01:45:11.899Z,3.3767
2019-05-11T01:45:18.380Z,2.9642
2019-05-11T01:45:27.384Z,2.3715
2019-05-11T01:45:38.386Z,2.1238
2019-05-11T01:45:47.384Z,2.2826
2019-05-11T01:45:58.386Z,1.9538
2019-05-11T01:46:07.371Z,2.5516
2019-05-11T01:46:18.354Z,2.5788
2019-05-11T01:46:27.358Z,3.0376
2019-05-11T01:46:38.376Z,2.7781
2019-05-11T01:46:47.421Z,3.0319
2019-05-11T01:46:58.372Z,2.4709
2019-05-11T01:47:10.200Z,1.9031
2019-05-11T01:47:18.367Z,1.5049
2019-05-11T01:47:29.538Z,2.0257
2019-05-11T01:47:37.382Z,1.7934
2019-05-11T01:47:50.320Z,1.6138
2019-05-11T01:47:57.361Z,2.8243
2019-05-11T01:48:07.876Z,3.1335
2019-05-11T01:48:17.372Z,3.1476
2019-05-11T01:48:28.384Z,2.9592
2019-05-11T01:48:37.367Z,2.8166
2019-05-11T01:48:48.399Z,2.6728
2019-05-11T01:48:57.372Z,2.3170
2019-05-11T01:49:08.005Z,1.8958
2019-05-11T01:49:17.372Z,2.5389
2019-05-11T01:49:28.386Z,2.9658
2019-05-11T01:49:37.405Z,3.1339
2019-05-11T01:49:48.386Z,3.5477
2019-05-11T01:49:57.908Z,3.4350
2019-05-11T01:50:08.370Z,2.6253
2019-05-11T01:50:18.880Z,1.9484
2019-05-11T01:50:28.377Z,2.0743
2019-05-11T01:50:37.385Z,2.3171
2019-05-11T01:50:49.361Z,2.4956
2019-05-11T01:50:59.379Z,2.8504
2019-05-11T01:51:08.370Z,2.5065
2019-05-11T01:51:20.313Z,2.4860
2019-05-11T01:51:27.364Z,2.7060
2019-05-11T01:51:38.374Z,2.0949
2019-05-11T01:51:47.379Z,1.7622
2019-05-11T01:51:58.386Z,1.7900
2019-05-11T01:52:07.368Z,1.6080
2019-05-11T01:52:18.372Z,1.8260
2019-05-11T01:52:27.364Z,2.4397
2019-05-11T01:52:38.387Z,2.6822
2019-05-11T01:52:47.373Z,2.4872
2019-05-11T01:52:58.365Z,2.6153
2019-05-11T01:53:07.363Z,3.2991
2019-05-11T01:53:18.393Z,2.7116
2019-05-11T01:53:27.380Z,3.7453
2019-05-11T01:53:38.385Z,3.3610
2019-05-11T01:53:48.202Z,3.1112
2019-05-11T01:53:58.400Z,2.9309
2019-05-11T01:54:08.311Z,2.7855
2019-05-11T01:54:17.861Z,2.2886
2019-05-11T01:54:27.395Z,2.1502
2019-05-11T01:54:39.276Z,2.3136
2019-05-11T01:54:47.366Z,2.0923
2019-05-11T01:54:58.374Z,1.4367
2019-05-11T01:55:09.363Z,1.6442
2019-05-11T01:55:18.362Z,1.7124
2019-05-11T01:55:30.433Z,1.8896
2019-05-11T01:55:37.384Z,2.0516
2019-05-11T01:55:50.907Z,1.5934
2019-05-11T01:55:57.408Z,1.9025
2019-05-11T01:56:08.364Z,1.9781
2019-05-11T01:56:17.363Z,2.1843
2019-05-11T01:56:28.384Z,1.5733
2019-05-11T01:56:37.387Z,1.7524
2019-05-11T01:56:48.399Z,1.8089
2019-05-11T01:56:57.374Z,2.1718
2019-05-11T01:57:08.370Z,2.8332
2019-05-11T01:57:17.359Z,2.6587
2019-05-11T01:57:28.389Z,2.6108
2019-05-11T01:57:37.379Z,3.2369
2019-05-11T01:57:48.362Z,3.4037
2019-05-11T01:57:57.377Z,3.9585
2019-05-11T01:58:08.389Z,3.5342
2019-05-11T01:58:17.383Z,2.9888
2019-05-11T01:58:27.281Z,2.0834
2019-05-11T01:58:37.451Z,2.1321
2019-05-11T01:58:48.363Z,2.1044
2019-05-11T01:58:58.276Z,2.3030
2019-05-11T01:59:08.371Z,2.7515
2019-05-11T01:59:19.375Z,3.2974
2019-05-11T01:59:29.231Z,3.6140
2019-05-11T01:59:40.464Z,2.9024
2019-05-11T01:59:47.359Z,2.0479
2019-05-11T01:59:58.375Z,2.8185
2019-05-11T02:00:07.386Z,2.8200
2019-05-11T02:00:18.381Z,2.4764
2019-05-11T02:00:27.382Z,2.5061
2019-05-11T02:00:38.391Z,3.4161
2019-05-11T02:00:47.388Z,3.1811
2019-05-11T02:00:58.353Z,3.9593
2019-05-11T02:01:07.389Z,4.1905
2019-05-11T02:01:18.389Z,3.6301
2019-05-11T02:01:27.362Z,3.2286
2019-05-11T02:01:38.385Z,2.9895
2019-05-11T02:01:47.376Z,2.4141
2019-05-11T02:01:57.332Z,2.1816
2019-05-11T02:02:07.374Z,2.5212
2019-05-11T02:02:17.613Z,3.0529
2019-05-11T02:02:27.367Z,2.5537
2019-05-11T02:02:39.388Z,2.7942
2019-05-11T02:02:49.376Z,2.3596
2019-05-11T02:02:58.381Z,2.9996
2019-05-11T02:03:09.385Z,3.1446
2019-05-11T02:03:17.399Z,2.4786
2019-05-11T02:03:30.900Z,1.6093
2019-05-11T02:03:37.392Z,1.5712
2019-05-11T02:03:48.362Z,2.6545
2019-05-11T02:03:57.382Z,2.6926
2019-05-11T02:04:08.384Z,2.2726
2019-05-11T02:04:17.384Z,1.9108
2019-05-11T02:04:28.384Z,1.8984
2019-05-11T02:04:37.405Z,1.5998
2019-05-11T02:04:50.924Z,1.7853